Time;durP1;ratioP1;P1;durP2;ratioP2;P2;SDS_P1;SDS_P2;PMS_P1;PMS_P2;Temp;Humidity;BMP_temperature;BMP_pressure;BME280_temperature;BME280_humidity;BME280_pressure;Samples;Min_cycle;Max_cycle;Signal;HPM_P1;HPM_P2
2023/01/08 00:04:50;;;;;;;15.05;8.13;;;;;;;;;;10402282;28;20029;-77
2023/01/08 00:09:53;;;;;;;16.75;8.07;;;;;;;;;;10416324;28;20510;-75
2023/01/08 00:14:54;;;;;;;20.33;9.25;;;;;;;;;;10420200;28;20487;-77
2023/01/08 00:19:54;;;;;;;19.53;9.00;;;;;;;;;;10403459;28;20026;-81
2023/01/08 00:24:55;;;;;;;16.65;9.05;;;;;;;;;;10401173;28;20025;-81
2023/01/08 00:29:55;;;;;;;18.58;8.60;;;;;;;;;;10381054;28;20045;-76
2023/01/08 00:34:55;;;;;;;16.73;9.40;;;;;;;;;;10400999;28;20410;-80
2023/01/08 00:39:56;;;;;;;21.98;9.35;;;;;;;;;;10400961;28;20041;-77
2023/01/08 00:44:56;;;;;;;27.90;11.27;;;;;;;;;;10385361;28;20030;-77
2023/01/08 00:49:56;;;;;;;23.30;10.13;;;;;;;;;;10369279;28;20067;-74
2023/01/08 00:54:56;;;;;;;20.55;10.70;;;;;;;;;;10400804;28;20062;-79
2023/01/08 00:59:57;;;;;;;20.52;11.05;;;;;;;;;;10400313;28;20033;-71
2023/01/08 01:04:57;;;;;;;23.55;11.75;;;;;;;;;;10401803;28;20079;-78
2023/01/08 01:09:57;;;;;;;28.08;11.23;;;;;;;;;;10414332;28;20032;-73
2023/01/08 01:14:58;;;;;;;20.80;9.90;;;;;;;;;;10423096;28;20028;-76
2023/01/08 01:19:58;;;;;;;23.55;11.20;;;;;;;;;;10393415;28;20267;-75
2023/01/08 01:25:00;;;;;;;24.20;11.32;;;;;;;;;;10411263;28;20029;-71
2023/01/08 01:30:00;;;;;;;23.85;11.05;;;;;;;;;;10422538;28;20048;-75
2023/01/08 01:35:01;;;;;;;19.97;9.80;;;;;;;;;;10417699;28;20063;-75
2023/01/08 01:40:01;;;;;;;21.58;9.85;;;;;;;;;;10403550;28;20026;-76
2023/01/08 01:45:11;;;;;;;24.75;10.82;;;;;;;;;;10398726;28;20044;-73
2023/01/08 01:50:22;;;;;;;17.80;9.60;;;;;;;;;;10400194;28;20503;-76
2023/01/08 01:55:23;;;;;;;15.73;8.10;;;;;;;;;;10439439;28;20108;-76
2023/01/08 02:00:23;;;;;;;11.88;7.20;;;;;;;;;;10422878;28;20159;-77
2023/01/08 02:05:28;;;;;;;13.88;6.85;;;;;;;;;;10423030;28;20032;-76
2023/01/08 02:10:33;;;;;;;16.05;8.40;;;;;;;;;;10442310;28;20033;-74
2023/01/08 02:15:52;;;;;;;17.13;8.48;;;;;;;;;;10440874;28;20525;-72
2023/01/08 02:20:55;;;;;;;13.88;8.57;;;;;;;;;;10423633;28;20069;-70
2023/01/08 02:25:58;;;;;;;18.88;8.70;;;;;;;;;;10419858;28;20116;-73
2023/01/08 02:31:00;;;;;;;18.35;8.27;;;;;;;;;;10425651;28;20017;-74
2023/01/08 02:36:19;;;;;;;16.58;7.80;;;;;;;;;;10400758;28;20049;-72
2023/01/08 02:41:23;;;;;;;15.85;7.22;;;;;;;;;;10417848;28;20052;-76
2023/01/08 02:46:27;;;;;;;14.43;7.07;;;;;;;;;;10429734;28;20031;-76
2023/01/08 02:51:32;;;;;;;14.40;6.80;;;;;;;;;;10447377;28;20055;-75
2023/01/08 02:56:34;;;;;;;12.43;6.25;;;;;;;;;;10430591;28;20090;-74
2023/01/08 03:01:35;;;;;;;10.57;5.50;;;;;;;;;;10428897;28;20118;-74
2023/01/08 03:06:37;;;;;;;17.33;7.90;;;;;;;;;;10429016;28;20021;-75
2023/01/08 03:11:44;;;;;;;17.50;8.00;;;;;;;;;;10434126;28;20017;-74
2023/01/08 03:16:51;;;;;;;11.23;6.30;;;;;;;;;;10429875;28;20025;-72
2023/01/08 03:21:52;;;;;;;12.27;7.43;;;;;;;;;;10441547;28;20025;-73
2023/01/08 03:26:55;;;;;;;14.80;7.53;;;;;;;;;;10460016;28;20107;-74
2023/01/08 03:31:59;;;;;;;12.57;6.55;;;;;;;;;;10432210;28;20014;-76
2023/01/08 03:37:01;;;;;;;15.40;7.13;;;;;;;;;;10446205;28;20024;-72
2023/01/08 03:42:04;;;;;;;16.58;7.57;;;;;;;;;;10428699;28;20049;-71
2023/01/08 03:47:07;;;;;;;11.65;6.45;;;;;;;;;;10411598;28;20009;-77
2023/01/08 03:52:07;;;;;;;13.02;7.03;;;;;;;;;;10427822;28;20049;-70
2023/01/08 03:57:07;;;;;;;14.90;7.97;;;;;;;;;;10446107;28;20505;-77
2023/01/08 04:02:07;;;;;;;15.85;6.88;;;;;;;;;;10427783;28;20032;-71
2023/01/08 04:07:13;;;;;;;16.30;7.00;;;;;;;;;;10427672;28;20108;-70
2023/01/08 04:12:14;;;;;;;13.13;7.05;;;;;;;;;;10426052;28;20025;-69
2023/01/08 04:17:14;;;;;;;17.63;8.35;;;;;;;;;;10427142;28;20024;-77
2023/01/08 04:22:14;;;;;;;18.45;9.63;;;;;;;;;;10426819;28;20024;-78
2023/01/08 04:27:14;;;;;;;17.65;8.55;;;;;;;;;;10426900;28;20018;-74
2023/01/08 04:32:15;;;;;;;18.15;7.68;;;;;;;;;;10444490;28;20051;-75
2023/01/08 04:37:15;;;;;;;17.13;8.77;;;;;;;;;;10426135;28;20028;-74
2023/01/08 04:42:15;;;;;;;11.68;7.55;;;;;;;;;;10426604;28;20123;-73
2023/01/08 04:47:15;;;;;;;18.02;7.70;;;;;;;;;;10425999;28;20509;-74
2023/01/08 04:52:16;;;;;;;12.07;7.35;;;;;;;;;;10425855;28;20203;-72
2023/01/08 04:57:16;;;;;;;17.80;8.02;;;;;;;;;;10443732;28;20029;-75
2023/01/08 05:02:16;;;;;;;8.95;6.10;;;;;;;;;;10425676;28;20047;-75
2023/01/08 05:07:17;;;;;;;16.33;6.63;;;;;;;;;;10443733;28;20454;-76
2023/01/08 05:12:17;;;;;;;9.87;6.30;;;;;;;;;;10389499;28;20279;-76
2023/01/08 05:17:17;;;;;;;14.77;7.10;;;;;;;;;;10441667;28;20025;-77
2023/01/08 05:22:18;;;;;;;13.95;7.70;;;;;;;;;;10467002;28;20096;-72
2023/01/08 05:27:18;;;;;;;12.57;6.93;;;;;;;;;;10446928;28;20029;-74
2023/01/08 05:32:18;;;;;;;11.35;6.60;;;;;;;;;;10448374;28;20032;-73
2023/01/08 05:37:18;;;;;;;7.25;5.70;;;;;;;;;;10424394;28;20531;-75
2023/01/08 05:42:19;;;;;;;14.40;5.25;;;;;;;;;;10442150;28;20021;-73
2023/01/08 05:47:19;;;;;;;12.98;6.93;;;;;;;;;;10424051;28;20071;-74
2023/01/08 05:52:19;;;;;;;18.13;7.43;;;;;;;;;;10423968;28;20474;-76
2023/01/08 05:57:19;;;;;;;11.70;6.85;;;;;;;;;;10441779;28;20032;-70
2023/01/08 06:02:20;;;;;;;10.63;7.18;;;;;;;;;;10423962;28;20025;-76
2023/01/08 06:07:20;;;;;;;13.82;7.05;;;;;;;;;;10423735;28;20107;-74
2023/01/08 06:12:20;;;;;;;17.05;7.72;;;;;;;;;;10423465;28;20047;-74
2023/01/08 06:17:20;;;;;;;12.65;6.28;;;;;;;;;;10441028;28;20048;-71
2023/01/08 06:22:21;;;;;;;12.82;6.68;;;;;;;;;;10423332;28;20568;-75
2023/01/08 06:27:21;;;;;;;18.55;7.20;;;;;;;;;;10411468;28;20025;-71
2023/01/08 06:32:23;;;;;;;26.17;8.25;;;;;;;;;;10401843;28;20109;-79
2023/01/08 06:37:24;;;;;;;17.23;6.07;;;;;;;;;;10406928;28;20029;-78
2023/01/08 06:42:25;;;;;;;14.48;7.57;;;;;;;;;;10419827;28;20112;-77
2023/01/08 06:47:25;;;;;;;19.20;8.10;;;;;;;;;;10436178;28;20021;-77
2023/01/08 06:52:25;;;;;;;17.95;8.85;;;;;;;;;;10438772;28;20307;-77
2023/01/08 06:57:25;;;;;;;14.20;7.70;;;;;;;;;;10420643;28;20139;-79
2023/01/08 07:02:26;;;;;;;10.40;6.82;;;;;;;;;;10421265;28;20028;-74
2023/01/08 07:07:26;;;;;;;15.38;7.38;;;;;;;;;;10447146;28;20079;-74
2023/01/08 07:12:27;;;;;;;17.05;8.07;;;;;;;;;;10426738;28;20043;-73
2023/01/08 07:17:27;;;;;;;15.68;7.03;;;;;;;;;;10452407;28;20037;-72
2023/01/08 07:22:27;;;;;;;12.70;7.18;;;;;;;;;;10423820;28;20036;-71
2023/01/08 07:27:28;;;;;;;7.40;5.50;;;;;;;;;;10405265;28;20033;-77
2023/01/08 07:32:29;;;;;;;15.00;7.18;;;;;;;;;;10422125;28;20781;-79
2023/01/08 07:37:29;;;;;;;16.45;8.18;;;;;;;;;;10440086;28;20092;-76
2023/01/08 07:42:30;;;;;;;10.87;7.20;;;;;;;;;;10425242;28;20254;-71
2023/01/08 07:47:30;;;;;;;14.30;6.13;;;;;;;;;;10438097;28;20028;-70
2023/01/08 07:52:31;;;;;;;23.23;9.50;;;;;;;;;;10424690;28;20079;-76
2023/01/08 07:57:32;;;;;;;25.85;14.90;;;;;;;;;;10425208;28;20071;-78
2023/01/08 08:02:32;;;;;;;40.95;21.15;;;;;;;;;;10420614;28;20111;-74
2023/01/08 08:07:33;;;;;;;46.83;23.73;;;;;;;;;;10422216;28;20037;-75
2023/01/08 08:12:33;;;;;;;46.88;25.77;;;;;;;;;;10424441;28;20013;-78
2023/01/08 08:17:35;;;;;;;56.67;27.92;;;;;;;;;;10427318;28;20079;-77
2023/01/08 08:22:35;;;;;;;44.75;23.70;;;;;;;;;;10436897;28;20029;-76
2023/01/08 08:27:36;;;;;;;56.75;24.02;;;;;;;;;;10422036;28;20502;-74
2023/01/08 08:32:36;;;;;;;49.17;22.35;;;;;;;;;;10421208;28;20033;-73
2023/01/08 08:37:36;;;;;;;43.22;20.20;;;;;;;;;;10418456;28;20029;-75
2023/01/08 08:42:37;;;;;;;45.42;22.00;;;;;;;;;;10420105;28;20179;-76
2023/01/08 08:47:37;;;;;;;38.87;17.87;;;;;;;;;;10439257;28;20027;-75
2023/01/08 08:52:37;;;;;;;35.80;18.87;;;;;;;;;;10421375;28;20054;-71
2023/01/08 08:57:39;;;;;;;43.55;22.13;;;;;;;;;;10422246;28;20272;-73
2023/01/08 09:02:39;;;;;;;52.90;22.50;;;;;;;;;;10421989;28;20395;-76
2023/01/08 09:07:40;;;;;;;57.77;27.73;;;;;;;;;;10433464;28;20090;-74
2023/01/08 09:12:40;;;;;;;61.27;28.13;;;;;;;;;;10431283;28;20543;-72
2023/01/08 09:17:40;;;;;;;53.05;26.85;;;;;;;;;;10448550;28;20017;-74
2023/01/08 09:22:40;;;;;;;60.80;27.60;;;;;;;;;;10428244;28;20566;-75
2023/01/08 09:27:41;;;;;;;46.85;23.55;;;;;;;;;;10421874;28;20090;-74
2023/01/08 09:37:49;;;;;;;44.63;22.77;;;;;;;;;;10374129;28;20516;-74
2023/01/08 09:42:54;;;;;;;35.00;20.98;;;;;;;;;;10369370;28;20466;-76
2023/01/08 09:47:56;;;;;;;37.55;20.42;;;;;;;;;;10366511;28;20037;-74
2023/01/08 09:52:56;;;;;;;32.08;18.95;;;;;;;;;;10376243;28;20124;-73
2023/01/08 09:57:57;;;;;;;28.83;14.82;;;;;;;;;;10355704;28;20132;-76
2023/01/08 10:02:59;;;;;;;28.95;15.65;;;;;;;;;;10375689;28;20025;-71
2023/01/08 10:08:00;;;;;;;30.92;15.38;;;;;;;;;;10371059;28;20124;-76
2023/01/08 10:13:00;;;;;;;32.22;16.77;;;;;;;;;;10375838;28;20081;-75
2023/01/08 10:18:02;;;;;;;37.47;17.53;;;;;;;;;;10381743;28;20430;-75
2023/01/08 10:23:15;;;;;;;23.42;11.77;;;;;;;;;;10377032;28;20276;-75
2023/01/08 10:28:18;;;;;;;36.42;16.80;;;;;;;;;;10375284;28;20037;-75
2023/01/08 10:33:37;;;;;;;29.30;16.35;;;;;;;;;;10364048;28;20073;-77
2023/01/08 10:38:47;;;;;;;31.83;15.45;;;;;;;;;;10350964;28;20029;-73
2023/01/08 10:43:50;;;;;;;24.08;13.02;;;;;;;;;;10358334;28;20026;-80
2023/01/08 10:48:52;;;;;;;35.15;15.85;;;;;;;;;;10383998;28;20026;-76
2023/01/08 10:53:53;;;;;;;34.47;16.45;;;;;;;;;;10372680;28;20109;-74
2023/01/08 10:58:54;;;;;;;29.98;15.80;;;;;;;;;;10364634;28;20034;-77
2023/01/08 11:03:56;;;;;;;30.42;15.35;;;;;;;;;;10448555;22;20061;-74
2023/01/08 11:08:58;;;;;;;30.40;15.85;;;;;;;;;;10455098;28;20017;-75
2023/01/08 11:14:00;;;;;;;32.67;17.48;;;;;;;;;;10441650;28;20028;-70
2023/01/08 11:19:00;;;;;;;30.05;16.95;;;;;;;;;;10452417;28;20025;-74
2023/01/08 11:24:00;;;;;;;27.87;14.63;;;;;;;;;;10453803;28;20474;-76
2023/01/08 11:29:04;;;;;;;37.17;15.88;;;;;;;;;;10478834;28;20025;-72
2023/01/08 11:34:24;;;;;;;27.55;15.43;;;;;;;;;;10468454;28;20048;-71
2023/01/08 11:39:24;;;;;;;28.73;15.75;;;;;;;;;;10451752;28;20021;-74
2023/01/08 11:44:34;;;;;;;30.00;15.70;;;;;;;;;;10441277;28;20025;-71
2023/01/08 11:50:00;;;;;;;32.13;15.55;;;;;;;;;;10449917;28;20033;-76
2023/01/08 11:55:16;;;;;;;31.55;16.75;;;;;;;;;;10403234;28;20041;-77
2023/01/08 12:00:35;;;;;;;36.20;18.30;;;;;;;;;;10443142;28;20025;-71
2023/01/08 12:05:51;;;;;;;31.00;18.17;;;;;;;;;;10434507;28;20052;-71
2023/01/08 12:10:59;;;;;;;40.30;19.95;;;;;;;;;;10425428;28;20029;-77
2023/01/08 12:16:16;;;;;;;35.17;19.90;;;;;;;;;;10425457;28;20090;-75
2023/01/08 12:21:23;;;;;;;43.40;21.17;;;;;;;;;;10442447;28;20028;-77
2023/01/08 12:26:37;;;;;;;43.10;23.10;;;;;;;;;;10406929;28;20032;-76
2023/01/08 12:31:56;;;;;;;40.95;21.20;;;;;;;;;;10426514;28;20411;-76
2023/01/08 12:37:02;;;;;;;38.03;20.92;;;;;;;;;;10424778;28;20029;-74
2023/01/08 12:42:07;;;;;;;43.00;22.23;;;;;;;;;;10428317;28;20060;-72
2023/01/08 12:47:12;;;;;;;45.75;21.42;;;;;;;;;;10419015;28;20036;-76
2023/01/08 12:52:36;;;;;;;40.45;20.17;;;;;;;;;;10422863;28;20117;-74
2023/01/08 12:57:42;;;;;;;43.05;20.92;;;;;;;;;;10419357;28;20139;-74
2023/01/08 13:02:57;;;;;;;33.92;20.65;;;;;;;;;;10431645;28;20483;-73
2023/01/08 13:08:01;;;;;;;47.10;20.88;;;;;;;;;;10415009;28;20442;-76
2023/01/08 13:13:02;;;;;;;40.47;20.00;;;;;;;;;;10396506;28;20033;-71
2023/01/08 13:18:22;;;;;;;40.65;20.45;;;;;;;;;;10409710;28;20031;-72
2023/01/08 13:23:41;;;;;;;40.05;19.95;;;;;;;;;;10422749;28;20029;-74
2023/01/08 13:28:44;;;;;;;32.80;19.15;;;;;;;;;;10426835;28;20025;-76
2023/01/08 13:33:47;;;;;;;43.85;20.27;;;;;;;;;;10425677;28;20067;-74
2023/01/08 13:39:06;;;;;;;40.38;17.58;;;;;;;;;;10425590;28;20123;-72
2023/01/08 13:44:12;;;;;;;37.47;17.85;;;;;;;;;;10427942;28;20230;-75
2023/01/08 13:49:26;;;;;;;35.30;18.15;;;;;;;;;;10420925;28;20023;-75
2023/01/08 13:54:37;;;;;;;39.53;16.60;;;;;;;;;;10428187;28;20079;-70
2023/01/08 13:59:37;;;;;;;38.10;19.40;;;;;;;;;;10425502;28;20107;-72
2023/01/08 14:04:38;;;;;;;36.45;18.27;;;;;;;;;;10428939;28;20458;-75
2023/01/08 14:09:38;;;;;;;35.83;18.47;;;;;;;;;;10396817;28;20033;-75
2023/01/08 14:14:38;;;;;;;33.60;17.67;;;;;;;;;;10419698;28;20056;-72
2023/01/08 14:19:39;;;;;;;39.55;17.30;;;;;;;;;;10452185;28;20032;-69
2023/01/08 14:24:42;;;;;;;35.50;17.58;;;;;;;;;;10447297;28;20178;-74
2023/01/08 14:29:43;;;;;;;42.10;17.73;;;;;;;;;;10450280;28;20025;-73
2023/01/08 14:34:44;;;;;;;42.65;18.60;;;;;;;;;;10434398;28;20053;-74
2023/01/08 14:39:50;;;;;;;44.33;18.38;;;;;;;;;;10428303;28;20116;-74
2023/01/08 14:44:55;;;;;;;49.85;23.85;;;;;;;;;;10425143;28;20383;-69
2023/01/08 14:49:56;;;;;;;56.78;24.88;;;;;;;;;;10426479;28;20036;-75
2023/01/08 14:54:58;;;;;;;57.47;25.05;;;;;;;;;;10420836;28;20040;-72
2023/01/08 15:00:00;;;;;;;54.50;22.83;;;;;;;;;;10430637;28;20028;-74
2023/01/08 15:05:01;;;;;;;45.25;22.60;;;;;;;;;;10424379;28;20126;-71
2023/01/08 15:10:02;;;;;;;58.97;23.13;;;;;;;;;;10415643;28;20119;-74
2023/01/08 15:15:20;;;;;;;57.65;23.67;;;;;;;;;;10432131;28;20101;-77
2023/01/08 15:20:21;;;;;;;;;;;;;;;;;;10429451;28;20580;-78
2023/01/08 15:25:24;;;;;;;70.28;30.90;;;;;;;;;;10447796;28;19912;-77
2023/01/08 15:30:33;;;;;;;77.57;31.60;;;;;;;;;;10423278;28;20040;-76
2023/01/08 15:35:33;;;;;;;64.55;29.65;;;;;;;;;;10445376;28;20032;-76
2023/01/08 15:40:34;;;;;;;72.07;31.63;;;;;;;;;;10440606;28;20028;-72
2023/01/08 15:45:34;;;;;;;65.15;31.90;;;;;;;;;;10426221;28;20373;-75
2023/01/08 15:50:36;;;;;;;70.68;31.55;;;;;;;;;;10435201;28;20036;-74
2023/01/08 15:55:36;;;;;;;72.80;32.53;;;;;;;;;;10432346;28;20047;-75
2023/01/08 16:00:38;;;;;;;92.50;34.00;;;;;;;;;;10450652;28;20049;-76
2023/01/08 16:05:39;;;;;;;76.70;31.10;;;;;;;;;;10435073;28;20481;-77
2023/01/08 16:10:39;;;;;;;86.53;34.00;;;;;;;;;;10448055;28;20108;-71
2023/01/08 16:15:40;;;;;;;72.93;32.30;;;;;;;;;;10427246;28;20024;-74
2023/01/08 16:20:40;;;;;;;82.87;32.50;;;;;;;;;;10436064;28;20025;-72
2023/01/08 16:25:40;;;;;;;77.00;32.67;;;;;;;;;;10428897;28;20383;-73
2023/01/08 16:30:42;;;;;;;74.93;32.60;;;;;;;;;;10425279;28;20021;-73
2023/01/08 16:35:43;;;;;;;78.93;34.13;;;;;;;;;;10438610;28;20056;-70
2023/01/08 16:40:43;;;;;;;93.18;36.25;;;;;;;;;;10448833;28;20025;-74
2023/01/08 16:45:47;;;;;;;82.32;32.75;;;;;;;;;;10455349;28;20031;-77
2023/01/08 16:50:47;;;;;;;57.35;20.50;;;;;;;;;;10460592;28;20025;-75
2023/01/08 16:55:47;;;;;;;53.67;24.38;;;;;;;;;;10432996;28;20059;-77
2023/01/08 17:00:48;;;;;;;53.10;24.98;;;;;;;;;;10438781;28;20179;-73
2023/01/08 17:05:50;;;;;;;27.83;13.15;;;;;;;;;;10426531;28;20088;-72
2023/01/08 17:10:50;;;;;;;19.08;9.43;;;;;;;;;;10425948;28;20123;-76
2023/01/08 17:15:51;;;;;;;14.80;8.37;;;;;;;;;;10399664;28;20127;-77
2023/01/08 17:20:52;;;;;;;8.25;5.60;;;;;;;;;;10424896;28;20025;-72
2023/01/08 17:25:57;;;;;;;11.50;6.40;;;;;;;;;;10438232;28;20564;-73
2023/01/08 17:31:01;;;;;;;9.95;6.13;;;;;;;;;;10428008;28;20559;-73
2023/01/08 17:36:09;;;;;;;11.63;6.20;;;;;;;;;;10433931;28;20020;-79
2023/01/08 17:42:22;;;;;;;8.80;5.82;;;;;;;;;;10447126;28;20114;-74
2023/01/08 17:46:30;;;;;;;11.13;7.15;;;;;;;;;;10466021;28;20016;-72
2023/01/08 17:51:31;;;;;;;11.32;6.28;;;;;;;;;;10444641;28;20581;-72
2023/01/08 17:56:31;;;;;;;13.52;6.60;;;;;;;;;;10442636;28;20027;-74
2023/01/08 18:01:33;;;;;;;15.70;7.13;;;;;;;;;;10442692;28;20021;-73
2023/01/08 18:06:34;;;;;;;27.38;7.55;;;;;;;;;;10458857;28;20079;-79
2023/01/08 18:11:35;;;;;;;11.65;6.30;;;;;;;;;;10448519;28;20505;-74
2023/01/08 18:16:35;;;;;;;11.13;6.60;;;;;;;;;;10463262;28;20036;-74
2023/01/08 18:21:37;;;;;;;14.80;8.50;;;;;;;;;;10458349;28;20029;-77
2023/01/08 18:26:37;;;;;;;19.95;8.38;;;;;;;;;;10447995;28;20422;-75
2023/01/08 18:31:38;;;;;;;16.77;8.60;;;;;;;;;;10440307;28;20032;-71
2023/01/08 18:36:38;;;;;;;17.17;8.23;;;;;;;;;;10437886;28;20033;-75
2023/01/08 18:46:57;;;;;;;19.98;8.45;;;;;;;;;;10464085;28;20025;-75
2023/01/08 18:51:57;;;;;;;17.80;8.50;;;;;;;;;;10462440;28;20478;-76
2023/01/08 18:56:58;;;;;;;15.73;7.95;;;;;;;;;;10450231;28;20048;-73
2023/01/08 19:01:58;;;;;;;18.52;9.52;;;;;;;;;;10435849;28;20033;-80
2023/01/08 19:06:58;;;;;;;23.47;10.80;;;;;;;;;;10406935;28;20049;-74
2023/01/08 19:11:59;;;;;;;29.05;12.55;;;;;;;;;;10399355;28;20033;-73
2023/01/08 19:16:59;;;;;;;35.17;15.57;;;;;;;;;;10388807;28;20025;-73
2023/01/08 19:21:59;;;;;;;33.00;13.18;;;;;;;;;;10382541;28;20025;-75
2023/01/08 19:26:59;;;;;;;24.03;10.60;;;;;;;;;;10411212;28;20021;-77
2023/01/08 19:32:00;;;;;;;23.15;11.25;;;;;;;;;;10389828;28;20040;-79
2023/01/08 19:37:01;;;;;;;25.48;11.43;;;;;;;;;;10411922;28;20108;-78
2023/01/08 19:47:21;;;;;;;23.10;10.07;;;;;;;;;;10403247;28;20515;-78
2023/01/08 19:52:21;;;;;;;18.90;9.13;;;;;;;;;;10390856;28;20025;-75
2023/01/08 19:57:21;;;;;;;36.85;18.33;;;;;;;;;;10377264;28;20547;-76
2023/01/08 20:02:22;;;;;;;20.88;8.23;;;;;;;;;;10393123;28;20036;-78
2023/01/08 20:07:22;;;;;;;19.08;9.52;;;;;;;;;;10436565;28;20598;-75
2023/01/08 20:12:23;;;;;;;17.40;8.10;;;;;;;;;;10428773;28;20075;-79
2023/01/08 20:17:24;;;;;;;14.98;7.18;;;;;;;;;;10447089;28;20036;-77
2023/01/08 20:22:24;;;;;;;14.75;8.25;;;;;;;;;;10430556;28;20414;-79
2023/01/08 20:27:24;;;;;;;19.07;8.40;;;;;;;;;;10433048;28;20145;-77
2023/01/08 20:32:25;;;;;;;15.40;7.03;;;;;;;;;;10428126;28;20274;-75
2023/01/08 20:37:25;;;;;;;12.43;7.27;;;;;;;;;;10412256;28;20089;-73
2023/01/08 20:42:25;;;;;;;13.97;7.13;;;;;;;;;;10429493;28;20103;-74
2023/01/08 20:47:26;;;;;;;15.32;7.72;;;;;;;;;;10456548;28;20033;-74
2023/01/08 20:52:27;;;;;;;16.03;8.60;;;;;;;;;;10449580;28;20048;-73
2023/01/08 20:57:28;;;;;;;17.02;8.63;;;;;;;;;;10454734;28;20013;-73
2023/01/08 21:02:30;;;;;;;21.55;9.68;;;;;;;;;;10421989;28;20041;-72
2023/01/08 21:07:30;;;;;;;22.17;8.43;;;;;;;;;;10438490;28;20018;-74
2023/01/08 21:12:30;;;;;;;18.05;9.07;;;;;;;;;;10442294;28;20021;-72
2023/01/08 21:17:31;;;;;;;17.17;8.47;;;;;;;;;;10401517;28;20025;-75
2023/01/08 21:22:33;;;;;;;28.83;12.00;;;;;;;;;;10428266;28;20294;-71
2023/01/08 21:27:33;;;;;;;23.83;11.68;;;;;;;;;;10424369;28;20031;-72
2023/01/08 21:32:34;;;;;;;25.30;12.00;;;;;;;;;;10424278;28;20565;-73
2023/01/08 21:37:36;;;;;;;20.42;10.98;;;;;;;;;;10442689;28;20052;-73
2023/01/08 21:47:57;;;;;;;35.45;13.60;;;;;;;;;;10442320;28;20041;-74
2023/01/08 21:58:16;;;;;;;22.90;10.48;;;;;;;;;;10420623;28;20025;-79
2023/01/08 22:03:17;;;;;;;25.93;11.63;;;;;;;;;;10390569;28;20614;-71
2023/01/08 22:08:18;;;;;;;32.13;11.83;;;;;;;;;;10411790;28;20018;-72
2023/01/08 22:13:18;;;;;;;26.27;13.85;;;;;;;;;;10412506;28;20335;-77
2023/01/08 22:18:18;;;;;;;28.70;15.03;;;;;;;;;;10409037;28;20028;-76
2023/01/08 22:23:19;;;;;;;28.92;14.80;;;;;;;;;;10436381;28;20021;-71
2023/01/08 22:28:19;;;;;;;30.60;14.27;;;;;;;;;;10407292;28;20353;-72
2023/01/08 22:33:20;;;;;;;33.47;15.07;;;;;;;;;;10423281;28;20036;-72
2023/01/08 22:38:20;;;;;;;31.67;17.50;;;;;;;;;;10399040;28;20057;-72
2023/01/08 22:43:20;;;;;;;37.53;16.50;;;;;;;;;;10420373;28;20032;-78
2023/01/08 22:48:21;;;;;;;23.37;11.83;;;;;;;;;;10448998;28;20094;-73
2023/01/08 22:53:21;;;;;;;27.10;13.02;;;;;;;;;;10464601;28;20350;-73
2023/01/08 22:58:21;;;;;;;26.42;11.23;;;;;;;;;;10443090;28;20605;-77
2023/01/08 23:03:22;;;;;;;20.25;10.10;;;;;;;;;;10446767;28;20666;-72
2023/01/08 23:08:22;;;;;;;18.08;10.95;;;;;;;;;;10430094;28;20503;-72
2023/01/08 23:13:22;;;;;;;18.85;11.70;;;;;;;;;;10430350;28;20557;-77
2023/01/08 23:18:23;;;;;;;19.17;11.45;;;;;;;;;;10430358;28;20044;-74
2023/01/08 23:23:23;;;;;;;24.88;11.68;;;;;;;;;;10429942;28;20124;-74
2023/01/08 23:28:23;;;;;;;23.10;11.05;;;;;;;;;;10404535;28;20022;-75
2023/01/08 23:33:23;;;;;;;22.67;11.65;;;;;;;;;;10405230;28;20388;-75
2023/01/08 23:38:24;;;;;;;23.33;11.53;;;;;;;;;;10447470;28;20040;-76
2023/01/08 23:43:24;;;;;;;20.38;12.35;;;;;;;;;;10428379;28;20032;-73
2023/01/08 23:48:26;;;;;;;19.45;10.50;;;;;;;;;;10428949;28;20017;-77
2023/01/08 23:53:26;;;;;;;22.35;11.50;;;;;;;;;;10395655;28;20044;-76
2023/01/08 23:58:26;;;;;;;33.72;12.75;;;;;;;;;;10415927;28;20033;-71
